sensor_id;sensor_type;location;lat;lon;timestamp;temperature;humidity
71142;DHT22;58808;59.366;17.970;2023-09-30T00:01:01;15.00;99.90
71142;DHT22;58808;59.366;17.970;2023-09-30T00:03:27;15.00;99.90
71142;DHT22;58808;59.366;17.970;2023-09-30T00:05:53;15.00;99.90
71142;DHT22;58808;59.366;17.970;2023-09-30T00:08:19;15.00;99.90
71142;DHT22;58808;59.366;17.970;2023-09-30T00:10:45;15.00;99.90
71142;DHT22;58808;59.366;17.970;2023-09-30T00:13:12;15.00;99.90
71142;DHT22;58808;59.366;17.970;2023-09-30T00:15:38;15.00;99.90
71142;DHT22;58808;59.366;17.970;2023-09-30T00:18:04;15.00;99.90
71142;DHT22;58808;59.366;17.970;2023-09-30T00:20:30;15.00;99.90
71142;DHT22;58808;59.366;17.970;2023-09-30T00:22:56;15.00;99.90
71142;DHT22;58808;59.366;17.970;2023-09-30T00:25:22;15.00;99.90
71142;DHT22;58808;59.366;17.970;2023-09-30T00:27:48;15.00;99.90
71142;DHT22;58808;59.366;17.970;2023-09-30T00:30:14;15.00;99.90
71142;DHT22;58808;59.366;17.970;2023-09-30T00:32:39;15.00;99.90
71142;DHT22;58808;59.366;17.970;2023-09-30T00:35:06;15.10;99.90
71142;DHT22;58808;59.366;17.970;2023-09-30T00:37:38;15.10;99.90
71142;DHT22;58808;59.366;17.970;2023-09-30T00:40:05;15.10;99.90
71142;DHT22;58808;59.366;17.970;2023-09-30T00:42:31;15.10;99.90
71142;DHT22;58808;59.366;17.970;2023-09-30T00:44:57;15.10;99.90
71142;DHT22;58808;59.366;17.970;2023-09-30T00:47:23;15.10;99.90
71142;DHT22;58808;59.366;17.970;2023-09-30T00:49:51;15.10;99.90
71142;DHT22;58808;59.366;17.970;2023-09-30T00:52:18;15.10;99.90
71142;DHT22;58808;59.366;17.970;2023-09-30T00:54:45;15.10;99.90
71142;DHT22;58808;59.366;17.970;2023-09-30T00:57:13;15.10;99.90
71142;DHT22;58808;59.366;17.970;2023-09-30T00:59:40;15.10;99.90
71142;DHT22;58808;59.366;17.970;2023-09-30T01:02:06;15.10;99.90
71142;DHT22;58808;59.366;17.970;2023-09-30T01:04:32;15.10;99.90
71142;DHT22;58808;59.366;17.970;2023-09-30T01:06:58;15.10;99.90
71142;DHT22;58808;59.366;17.970;2023-09-30T01:09:24;15.00;99.90
71142;DHT22;58808;59.366;17.970;2023-09-30T01:11:50;15.00;99.90
71142;DHT22;58808;59.366;17.970;2023-09-30T01:14:26;15.00;99.90
71142;DHT22;58808;59.366;17.970;2023-09-30T01:16:55;15.00;99.90
71142;DHT22;58808;59.366;17.970;2023-09-30T01:19:36;15.00;99.90
71142;DHT22;58808;59.366;17.970;2023-09-30T01:22:01;15.00;99.90
71142;DHT22;58808;59.366;17.970;2023-09-30T01:24:41;15.00;99.90
71142;DHT22;58808;59.366;17.970;2023-09-30T01:27:08;15.00;99.90
71142;DHT22;58808;59.366;17.970;2023-09-30T01:29:34;14.90;99.90
71142;DHT22;58808;59.366;17.970;2023-09-30T01:32:00;14.90;99.90
71142;DHT22;58808;59.366;17.970;2023-09-30T01:34:26;14.90;99.90
71142;DHT22;58808;59.366;17.970;2023-09-30T01:36:53;14.80;99.90
71142;DHT22;58808;59.366;17.970;2023-09-30T01:39:19;14.70;99.90
71142;DHT22;58808;59.366;17.970;2023-09-30T01:41:44;14.70;99.90
71142;DHT22;58808;59.366;17.970;2023-09-30T01:44:10;14.70;99.90
71142;DHT22;58808;59.366;17.970;2023-09-30T01:46:36;14.70;99.90
71142;DHT22;58808;59.366;17.970;2023-09-30T01:49:02;14.70;99.90
71142;DHT22;58808;59.366;17.970;2023-09-30T01:51:31;14.70;99.90
71142;DHT22;58808;59.366;17.970;2023-09-30T01:53:57;14.60;99.90
71142;DHT22;58808;59.366;17.970;2023-09-30T01:56:23;14.60;99.90
71142;DHT22;58808;59.366;17.970;2023-09-30T01:58:49;14.60;99.90
71142;DHT22;58808;59.366;17.970;2023-09-30T02:01:14;14.40;99.90
71142;DHT22;58808;59.366;17.970;2023-09-30T02:03:40;14.30;99.90
71142;DHT22;58808;59.366;17.970;2023-09-30T02:06:07;14.20;99.90
71142;DHT22;58808;59.366;17.970;2023-09-30T02:08:33;14.10;99.90
71142;DHT22;58808;59.366;17.970;2023-09-30T02:11:02;14.10;99.90
71142;DHT22;58808;59.366;17.970;2023-09-30T02:13:28;14.00;99.90
71142;DHT22;58808;59.366;17.970;2023-09-30T02:15:53;13.90;99.90
71142;DHT22;58808;59.366;17.970;2023-09-30T02:18:21;13.90;99.90
71142;DHT22;58808;59.366;17.970;2023-09-30T02:20:47;13.80;99.90
71142;DHT22;58808;59.366;17.970;2023-09-30T02:23:13;13.80;99.90
71142;DHT22;58808;59.366;17.970;2023-09-30T02:25:41;13.80;99.90
71142;DHT22;58808;59.366;17.970;2023-09-30T02:28:08;13.80;99.90
71142;DHT22;58808;59.366;17.970;2023-09-30T02:30:34;13.70;99.90
71142;DHT22;58808;59.366;17.970;2023-09-30T02:33:00;13.70;99.90
71142;DHT22;58808;59.366;17.970;2023-09-30T02:35:26;13.60;99.90
71142;DHT22;58808;59.366;17.970;2023-09-30T02:37:54;13.60;99.90
71142;DHT22;58808;59.366;17.970;2023-09-30T02:40:20;13.60;99.90
71142;DHT22;58808;59.366;17.970;2023-09-30T02:42:46;13.50;99.90
71142;DHT22;58808;59.366;17.970;2023-09-30T02:45:16;13.50;99.90
71142;DHT22;58808;59.366;17.970;2023-09-30T02:47:45;13.40;99.90
71142;DHT22;58808;59.366;17.970;2023-09-30T02:50:11;13.40;99.90
71142;DHT22;58808;59.366;17.970;2023-09-30T02:52:37;13.40;99.90
71142;DHT22;58808;59.366;17.970;2023-09-30T02:55:07;13.40;99.90
71142;DHT22;58808;59.366;17.970;2023-09-30T02:57:33;13.30;99.90
71142;DHT22;58808;59.366;17.970;2023-09-30T02:59:59;13.30;99.90
71142;DHT22;58808;59.366;17.970;2023-09-30T03:02:25;13.30;99.90
71142;DHT22;58808;59.366;17.970;2023-09-30T03:04:51;13.30;99.90
71142;DHT22;58808;59.366;17.970;2023-09-30T03:07:20;13.20;99.90
71142;DHT22;58808;59.366;17.970;2023-09-30T03:09:46;13.20;99.90
71142;DHT22;58808;59.366;17.970;2023-09-30T03:12:12;13.20;99.90
71142;DHT22;58808;59.366;17.970;2023-09-30T03:14:39;13.20;99.90
71142;DHT22;58808;59.366;17.970;2023-09-30T03:17:05;13.30;99.90
71142;DHT22;58808;59.366;17.970;2023-09-30T03:19:37;13.30;99.90
71142;DHT22;58808;59.366;17.970;2023-09-30T03:22:03;13.30;99.90
71142;DHT22;58808;59.366;17.970;2023-09-30T03:24:31;13.30;99.90
71142;DHT22;58808;59.366;17.970;2023-09-30T03:26:57;13.30;99.90
71142;DHT22;58808;59.366;17.970;2023-09-30T03:29:23;13.30;99.90
71142;DHT22;58808;59.366;17.970;2023-09-30T03:31:49;13.30;99.90
71142;DHT22;58808;59.366;17.970;2023-09-30T03:34:14;13.30;99.90
71142;DHT22;58808;59.366;17.970;2023-09-30T03:36:42;13.40;99.90
71142;DHT22;58808;59.366;17.970;2023-09-30T03:39:08;13.40;99.90
71142;DHT22;58808;59.366;17.970;2023-09-30T03:41:34;13.40;99.90
71142;DHT22;58808;59.366;17.970;2023-09-30T03:44:03;13.40;99.90
71142;DHT22;58808;59.366;17.970;2023-09-30T03:46:29;13.40;99.90
71142;DHT22;58808;59.366;17.970;2023-09-30T03:48:55;13.40;99.90
71142;DHT22;58808;59.366;17.970;2023-09-30T03:51:21;13.50;99.90
71142;DHT22;58808;59.366;17.970;2023-09-30T03:53:50;13.50;99.90
71142;DHT22;58808;59.366;17.970;2023-09-30T03:59:20;13.50;99.90
71142;DHT22;58808;59.366;17.970;2023-09-30T04:01:45;13.50;99.90
71142;DHT22;58808;59.366;17.970;2023-09-30T04:04:12;13.50;99.90
71142;DHT22;58808;59.366;17.970;2023-09-30T04:06:39;13.50;99.90
71142;DHT22;58808;59.366;17.970;2023-09-30T04:09:05;13.40;99.90
71142;DHT22;58808;59.366;17.970;2023-09-30T04:11:36;13.40;99.90
71142;DHT22;58808;59.366;17.970;2023-09-30T04:14:05;13.40;99.90
71142;DHT22;58808;59.366;17.970;2023-09-30T04:16:32;13.40;99.90
71142;DHT22;58808;59.366;17.970;2023-09-30T04:18:58;13.40;99.90
71142;DHT22;58808;59.366;17.970;2023-09-30T04:21:23;13.30;99.90
71142;DHT22;58808;59.366;17.970;2023-09-30T04:23:49;13.30;99.90
71142;DHT22;58808;59.366;17.970;2023-09-30T04:26:15;13.30;99.90
71142;DHT22;58808;59.366;17.970;2023-09-30T04:28:40;13.20;99.90
71142;DHT22;58808;59.366;17.970;2023-09-30T04:31:06;13.20;99.90
71142;DHT22;58808;59.366;17.970;2023-09-30T04:33:33;13.10;99.90
71142;DHT22;58808;59.366;17.970;2023-09-30T04:36:01;13.10;99.90
71142;DHT22;58808;59.366;17.970;2023-09-30T04:38:27;13.10;99.90
71142;DHT22;58808;59.366;17.970;2023-09-30T04:40:53;13.10;99.90
71142;DHT22;58808;59.366;17.970;2023-09-30T04:43:20;13.10;99.90
71142;DHT22;58808;59.366;17.970;2023-09-30T04:45:48;13.00;99.90
71142;DHT22;58808;59.366;17.970;2023-09-30T04:48:18;13.00;99.90
71142;DHT22;58808;59.366;17.970;2023-09-30T04:50:43;13.00;99.90
71142;DHT22;58808;59.366;17.970;2023-09-30T04:53:09;12.90;99.90
71142;DHT22;58808;59.366;17.970;2023-09-30T04:55:35;12.90;99.90
71142;DHT22;58808;59.366;17.970;2023-09-30T04:58:03;12.90;99.90
71142;DHT22;58808;59.366;17.970;2023-09-30T05:00:32;12.90;99.90
71142;DHT22;58808;59.366;17.970;2023-09-30T05:03:01;12.80;99.90
71142;DHT22;58808;59.366;17.970;2023-09-30T05:05:27;12.80;99.90
71142;DHT22;58808;59.366;17.970;2023-09-30T05:07:54;12.80;99.90
71142;DHT22;58808;59.366;17.970;2023-09-30T05:10:20;12.80;99.90
71142;DHT22;58808;59.366;17.970;2023-09-30T05:12:46;12.80;99.90
71142;DHT22;58808;59.366;17.970;2023-09-30T05:15:16;12.80;99.90
71142;DHT22;58808;59.366;17.970;2023-09-30T05:17:42;12.80;99.90
71142;DHT22;58808;59.366;17.970;2023-09-30T05:20:12;12.70;99.90
71142;DHT22;58808;59.366;17.970;2023-09-30T05:22:41;12.70;99.90
71142;DHT22;58808;59.366;17.970;2023-09-30T05:25:10;12.80;99.90
71142;DHT22;58808;59.366;17.970;2023-09-30T05:27:36;12.80;99.90
71142;DHT22;58808;59.366;17.970;2023-09-30T05:30:04;12.80;99.90
71142;DHT22;58808;59.366;17.970;2023-09-30T05:32:31;12.80;99.90
71142;DHT22;58808;59.366;17.970;2023-09-30T05:34:57;12.80;99.90
71142;DHT22;58808;59.366;17.970;2023-09-30T05:37:24;12.80;99.90
71142;DHT22;58808;59.366;17.970;2023-09-30T05:39:50;12.90;99.90
71142;DHT22;58808;59.366;17.970;2023-09-30T05:42:19;12.90;99.90
71142;DHT22;58808;59.366;17.970;2023-09-30T05:44:45;12.90;99.90
71142;DHT22;58808;59.366;17.970;2023-09-30T05:47:11;12.90;99.90
71142;DHT22;58808;59.366;17.970;2023-09-30T05:49:37;12.90;99.90
71142;DHT22;58808;59.366;17.970;2023-09-30T05:52:03;12.90;99.90
71142;DHT22;58808;59.366;17.970;2023-09-30T05:54:30;12.90;99.90
71142;DHT22;58808;59.366;17.970;2023-09-30T05:56:56;12.90;99.90
71142;DHT22;58808;59.366;17.970;2023-09-30T05:59:22;12.90;99.90
71142;DHT22;58808;59.366;17.970;2023-09-30T06:01:51;12.90;99.90
71142;DHT22;58808;59.366;17.970;2023-09-30T06:04:18;12.90;99.90
71142;DHT22;58808;59.366;17.970;2023-09-30T06:06:44;12.90;99.90
71142;DHT22;58808;59.366;17.970;2023-09-30T06:09:09;12.90;99.90
71142;DHT22;58808;59.366;17.970;2023-09-30T06:11:35;13.00;99.90
71142;DHT22;58808;59.366;17.970;2023-09-30T06:14:01;13.00;99.90
71142;DHT22;58808;59.366;17.970;2023-09-30T06:16:28;13.00;99.90
71142;DHT22;58808;59.366;17.970;2023-09-30T06:18:54;13.00;99.90
71142;DHT22;58808;59.366;17.970;2023-09-30T06:21:24;13.00;99.90
71142;DHT22;58808;59.366;17.970;2023-09-30T06:23:54;13.00;99.90
71142;DHT22;58808;59.366;17.970;2023-09-30T06:26:20;13.00;99.90
71142;DHT22;58808;59.366;17.970;2023-09-30T06:28:50;13.00;99.90
71142;DHT22;58808;59.366;17.970;2023-09-30T06:31:19;13.00;99.90
71142;DHT22;58808;59.366;17.970;2023-09-30T06:33:45;13.00;99.90
71142;DHT22;58808;59.366;17.970;2023-09-30T06:36:14;13.00;99.90
71142;DHT22;58808;59.366;17.970;2023-09-30T06:38:41;13.00;99.90
71142;DHT22;58808;59.366;17.970;2023-09-30T06:41:07;13.00;99.90
71142;DHT22;58808;59.366;17.970;2023-09-30T06:43:34;13.00;99.90
71142;DHT22;58808;59.366;17.970;2023-09-30T06:46:09;13.00;99.90
71142;DHT22;58808;59.366;17.970;2023-09-30T06:48:35;13.00;99.90
71142;DHT22;58808;59.366;17.970;2023-09-30T06:51:01;13.00;99.90
71142;DHT22;58808;59.366;17.970;2023-09-30T06:53:27;13.00;99.90
71142;DHT22;58808;59.366;17.970;2023-09-30T06:55:55;13.10;99.90
71142;DHT22;58808;59.366;17.970;2023-09-30T06:58:21;13.10;99.90
71142;DHT22;58808;59.366;17.970;2023-09-30T07:00:50;13.10;99.90
71142;DHT22;58808;59.366;17.970;2023-09-30T07:03:17;13.10;99.90
71142;DHT22;58808;59.366;17.970;2023-09-30T07:05:44;13.20;99.90
71142;DHT22;58808;59.366;17.970;2023-09-30T07:08:10;13.20;99.90
71142;DHT22;58808;59.366;17.970;2023-09-30T07:10:36;13.20;99.90
71142;DHT22;58808;59.366;17.970;2023-09-30T07:13:05;13.20;99.90
71142;DHT22;58808;59.366;17.970;2023-09-30T07:15:32;13.20;99.90
71142;DHT22;58808;59.366;17.970;2023-09-30T07:17:58;13.30;99.90
71142;DHT22;58808;59.366;17.970;2023-09-30T07:20:24;13.30;99.90
71142;DHT22;58808;59.366;17.970;2023-09-30T07:22:53;13.30;99.90
71142;DHT22;58808;59.366;17.970;2023-09-30T07:25:19;13.30;99.90
71142;DHT22;58808;59.366;17.970;2023-09-30T07:27:45;13.30;99.90
71142;DHT22;58808;59.366;17.970;2023-09-30T07:30:11;13.30;99.90
71142;DHT22;58808;59.366;17.970;2023-09-30T07:32:38;13.40;99.90
71142;DHT22;58808;59.366;17.970;2023-09-30T07:35:04;13.40;99.90
71142;DHT22;58808;59.366;17.970;2023-09-30T07:37:30;13.40;99.90
71142;DHT22;58808;59.366;17.970;2023-09-30T07:39:55;13.50;99.90
71142;DHT22;58808;59.366;17.970;2023-09-30T07:42:21;13.40;99.90
71142;DHT22;58808;59.366;17.970;2023-09-30T07:44:48;13.50;99.90
71142;DHT22;58808;59.366;17.970;2023-09-30T07:47:14;13.60;99.90
71142;DHT22;58808;59.366;17.970;2023-09-30T07:49:40;13.60;99.90
71142;DHT22;58808;59.366;17.970;2023-09-30T07:52:06;13.60;99.90
71142;DHT22;58808;59.366;17.970;2023-09-30T07:54:32;13.70;99.90
71142;DHT22;58808;59.366;17.970;2023-09-30T07:56:58;13.70;99.90
71142;DHT22;58808;59.366;17.970;2023-09-30T07:59:24;13.80;99.90
71142;DHT22;58808;59.366;17.970;2023-09-30T08:01:51;13.90;99.90
71142;DHT22;58808;59.366;17.970;2023-09-30T08:04:18;14.10;99.90
71142;DHT22;58808;59.366;17.970;2023-09-30T08:06:44;14.10;99.90
71142;DHT22;58808;59.366;17.970;2023-09-30T08:09:13;14.30;99.90
71142;DHT22;58808;59.366;17.970;2023-09-30T08:11:39;14.30;99.90
71142;DHT22;58808;59.366;17.970;2023-09-30T08:14:05;14.40;99.90
71142;DHT22;58808;59.366;17.970;2023-09-30T08:16:35;14.50;99.90
71142;DHT22;58808;59.366;17.970;2023-09-30T08:19:02;14.50;99.90
71142;DHT22;58808;59.366;17.970;2023-09-30T08:21:29;14.50;99.90
71142;DHT22;58808;59.366;17.970;2023-09-30T08:23:54;14.50;99.90
71142;DHT22;58808;59.366;17.970;2023-09-30T08:26:20;14.50;99.90
71142;DHT22;58808;59.366;17.970;2023-09-30T08:28:46;14.60;99.90
71142;DHT22;58808;59.366;17.970;2023-09-30T08:31:12;14.60;99.90
71142;DHT22;58808;59.366;17.970;2023-09-30T08:33:37;14.70;99.90
71142;DHT22;58808;59.366;17.970;2023-09-30T08:36:06;14.90;99.90
71142;DHT22;58808;59.366;17.970;2023-09-30T08:38:37;14.90;99.90
71142;DHT22;58808;59.366;17.970;2023-09-30T08:41:03;14.90;99.90
71142;DHT22;58808;59.366;17.970;2023-09-30T08:43:29;15.00;99.90
71142;DHT22;58808;59.366;17.970;2023-09-30T08:45:59;15.10;99.90
71142;DHT22;58808;59.366;17.970;2023-09-30T08:48:27;15.00;99.90
71142;DHT22;58808;59.366;17.970;2023-09-30T08:50:54;14.90;99.90
71142;DHT22;58808;59.366;17.970;2023-09-30T08:53:20;15.00;99.90
71142;DHT22;58808;59.366;17.970;2023-09-30T08:55:46;15.10;99.90
71142;DHT22;58808;59.366;17.970;2023-09-30T08:58:13;15.20;99.90
71142;DHT22;58808;59.366;17.970;2023-09-30T09:00:40;15.20;99.90
71142;DHT22;58808;59.366;17.970;2023-09-30T09:03:07;15.00;99.90
71142;DHT22;58808;59.366;17.970;2023-09-30T09:05:33;14.90;99.90
71142;DHT22;58808;59.366;17.970;2023-09-30T09:07:59;14.80;99.90
71142;DHT22;58808;59.366;17.970;2023-09-30T09:10:24;14.80;99.90
71142;DHT22;58808;59.366;17.970;2023-09-30T09:12:59;14.70;99.90
71142;DHT22;58808;59.366;17.970;2023-09-30T09:15:27;14.70;99.90
71142;DHT22;58808;59.366;17.970;2023-09-30T09:17:56;14.70;99.90
71142;DHT22;58808;59.366;17.970;2023-09-30T09:20:26;14.70;99.90
71142;DHT22;58808;59.366;17.970;2023-09-30T09:22:53;14.70;99.90
71142;DHT22;58808;59.366;17.970;2023-09-30T09:25:21;14.70;99.90
71142;DHT22;58808;59.366;17.970;2023-09-30T09:27:49;14.80;99.90
71142;DHT22;58808;59.366;17.970;2023-09-30T09:30:18;14.90;99.90
71142;DHT22;58808;59.366;17.970;2023-09-30T09:32:55;15.00;99.90
71142;DHT22;58808;59.366;17.970;2023-09-30T09:35:23;15.10;99.90
71142;DHT22;58808;59.366;17.970;2023-09-30T09:38:05;15.30;99.90
71142;DHT22;58808;59.366;17.970;2023-09-30T09:40:32;15.40;99.90
71142;DHT22;58808;59.366;17.970;2023-09-30T09:42:59;15.50;99.90
71142;DHT22;58808;59.366;17.970;2023-09-30T09:45:28;15.50;99.90
71142;DHT22;58808;59.366;17.970;2023-09-30T09:47:54;15.60;99.90
71142;DHT22;58808;59.366;17.970;2023-09-30T09:50:21;15.80;99.90
71142;DHT22;58808;59.366;17.970;2023-09-30T09:52:54;15.80;99.90
71142;DHT22;58808;59.366;17.970;2023-09-30T09:55:25;15.90;99.90
71142;DHT22;58808;59.366;17.970;2023-09-30T09:57:52;16.00;99.90
71142;DHT22;58808;59.366;17.970;2023-09-30T10:00:22;16.00;99.90
71142;DHT22;58808;59.366;17.970;2023-09-30T10:02:50;15.90;99.90
71142;DHT22;58808;59.366;17.970;2023-09-30T10:05:17;16.00;99.90
71142;DHT22;58808;59.366;17.970;2023-09-30T10:07:44;16.00;99.90
71142;DHT22;58808;59.366;17.970;2023-09-30T10:10:14;16.10;99.90
71142;DHT22;58808;59.366;17.970;2023-09-30T10:12:41;16.10;99.90
71142;DHT22;58808;59.366;17.970;2023-09-30T10:18:08;16.00;99.90
71142;DHT22;58808;59.366;17.970;2023-09-30T10:20:40;16.00;99.90
71142;DHT22;58808;59.366;17.970;2023-09-30T10:23:20;16.20;99.90
71142;DHT22;58808;59.366;17.970;2023-09-30T10:25:51;16.40;99.90
71142;DHT22;58808;59.366;17.970;2023-09-30T10:36:38;16.00;99.90
71142;DHT22;58808;59.366;17.970;2023-09-30T10:39:06;15.90;99.90
71142;DHT22;58808;59.366;17.970;2023-09-30T10:46:51;15.50;99.90
71142;DHT22;58808;59.366;17.970;2023-09-30T10:49:37;15.30;99.90
71142;DHT22;58808;59.366;17.970;2023-09-30T10:52:04;15.20;99.90
71142;DHT22;58808;59.366;17.970;2023-09-30T10:54:31;15.10;99.90
71142;DHT22;58808;59.366;17.970;2023-09-30T10:56:59;15.10;99.90
71142;DHT22;58808;59.366;17.970;2023-09-30T10:59:27;15.10;99.90
71142;DHT22;58808;59.366;17.970;2023-09-30T11:01:53;15.10;99.90
71142;DHT22;58808;59.366;17.970;2023-09-30T11:04:19;15.10;99.90
71142;DHT22;58808;59.366;17.970;2023-09-30T11:06:46;15.10;99.90
71142;DHT22;58808;59.366;17.970;2023-09-30T11:09:19;15.10;99.90
71142;DHT22;58808;59.366;17.970;2023-09-30T11:11:47;15.20;99.90
71142;DHT22;58808;59.366;17.970;2023-09-30T11:14:20;15.40;99.90
71142;DHT22;58808;59.366;17.970;2023-09-30T11:16:47;15.50;99.90
71142;DHT22;58808;59.366;17.970;2023-09-30T11:19:13;15.70;99.90
71142;DHT22;58808;59.366;17.970;2023-09-30T11:21:41;15.90;99.90
71142;DHT22;58808;59.366;17.970;2023-09-30T11:24:07;16.10;99.90
71142;DHT22;58808;59.366;17.970;2023-09-30T11:26:34;16.10;99.90
71142;DHT22;58808;59.366;17.970;2023-09-30T11:31:32;16.00;99.90
71142;DHT22;58808;59.366;17.970;2023-09-30T11:34:00;16.00;99.90
71142;DHT22;58808;59.366;17.970;2023-09-30T11:36:30;16.10;99.90
71142;DHT22;58808;59.366;17.970;2023-09-30T11:38:59;16.00;99.90
71142;DHT22;58808;59.366;17.970;2023-09-30T11:41:38;15.90;99.90
71142;DHT22;58808;59.366;17.970;2023-09-30T11:44:13;15.80;99.90
71142;DHT22;58808;59.366;17.970;2023-09-30T11:46:50;15.70;99.90
71142;DHT22;58808;59.366;17.970;2023-09-30T11:51:50;16.00;99.90
71142;DHT22;58808;59.366;17.970;2023-09-30T11:54:16;16.00;99.90
71142;DHT22;58808;59.366;17.970;2023-09-30T11:56:42;16.10;99.90
71142;DHT22;58808;59.366;17.970;2023-09-30T11:59:07;16.10;99.90
71142;DHT22;58808;59.366;17.970;2023-09-30T12:01:37;16.20;99.90
71142;DHT22;58808;59.366;17.970;2023-09-30T12:04:03;16.40;99.90
71142;DHT22;58808;59.366;17.970;2023-09-30T12:06:29;16.50;99.90
71142;DHT22;58808;59.366;17.970;2023-09-30T12:08:55;16.60;99.90
71142;DHT22;58808;59.366;17.970;2023-09-30T12:11:21;16.50;99.90
71142;DHT22;58808;59.366;17.970;2023-09-30T12:13:49;16.50;99.90
71142;DHT22;58808;59.366;17.970;2023-09-30T12:16:17;16.40;99.90
71142;DHT22;58808;59.366;17.970;2023-09-30T12:18:45;16.50;99.90
71142;DHT22;58808;59.366;17.970;2023-09-30T12:21:11;16.60;99.90
71142;DHT22;58808;59.366;17.970;2023-09-30T12:23:39;16.80;99.90
71142;DHT22;58808;59.366;17.970;2023-09-30T12:26:05;16.70;99.90
71142;DHT22;58808;59.366;17.970;2023-09-30T12:28:34;16.70;99.90
71142;DHT22;58808;59.366;17.970;2023-09-30T12:31:00;16.80;99.90
71142;DHT22;58808;59.366;17.970;2023-09-30T12:33:30;16.90;99.90
71142;DHT22;58808;59.366;17.970;2023-09-30T12:35:57;16.90;99.90
71142;DHT22;58808;59.366;17.970;2023-09-30T12:38:24;17.10;99.90
71142;DHT22;58808;59.366;17.970;2023-09-30T12:40:54;16.90;99.90
71142;DHT22;58808;59.366;17.970;2023-09-30T12:43:21;16.70;99.90
71142;DHT22;58808;59.366;17.970;2023-09-30T12:45:47;16.50;99.90
71142;DHT22;58808;59.366;17.970;2023-09-30T12:48:16;16.50;99.90
71142;DHT22;58808;59.366;17.970;2023-09-30T12:50:43;16.70;99.90
71142;DHT22;58808;59.366;17.970;2023-09-30T12:53:09;17.00;99.90
71142;DHT22;58808;59.366;17.970;2023-09-30T12:55:34;16.90;99.90
71142;DHT22;58808;59.366;17.970;2023-09-30T12:58:00;16.80;99.90
71142;DHT22;58808;59.366;17.970;2023-09-30T13:00:27;16.70;99.90
71142;DHT22;58808;59.366;17.970;2023-09-30T13:02:53;16.60;99.90
71142;DHT22;58808;59.366;17.970;2023-09-30T13:05:18;16.50;99.90
71142;DHT22;58808;59.366;17.970;2023-09-30T13:07:45;16.50;99.90
71142;DHT22;58808;59.366;17.970;2023-09-30T13:10:12;16.50;99.90
71142;DHT22;58808;59.366;17.970;2023-09-30T13:12:38;16.50;99.90
71142;DHT22;58808;59.366;17.970;2023-09-30T13:15:05;16.50;99.90
71142;DHT22;58808;59.366;17.970;2023-09-30T13:17:31;16.40;99.90
71142;DHT22;58808;59.366;17.970;2023-09-30T13:19:57;16.40;99.90
71142;DHT22;58808;59.366;17.970;2023-09-30T13:22:23;16.30;99.90
71142;DHT22;58808;59.366;17.970;2023-09-30T13:24:49;16.20;99.90
71142;DHT22;58808;59.366;17.970;2023-09-30T13:27:15;16.10;99.90
71142;DHT22;58808;59.366;17.970;2023-09-30T13:29:45;16.10;99.90
71142;DHT22;58808;59.366;17.970;2023-09-30T13:32:10;16.20;99.90
71142;DHT22;58808;59.366;17.970;2023-09-30T13:34:37;16.50;99.90
71142;DHT22;58808;59.366;17.970;2023-09-30T13:37:02;16.70;99.90
71142;DHT22;58808;59.366;17.970;2023-09-30T13:39:28;16.90;99.90
71142;DHT22;58808;59.366;17.970;2023-09-30T13:41:54;16.80;99.90
71142;DHT22;58808;59.366;17.970;2023-09-30T13:44:20;16.90;99.90
71142;DHT22;58808;59.366;17.970;2023-09-30T13:46:46;16.90;99.90
71142;DHT22;58808;59.366;17.970;2023-09-30T13:49:12;16.70;99.90
71142;DHT22;58808;59.366;17.970;2023-09-30T13:51:38;16.50;99.90
71142;DHT22;58808;59.366;17.970;2023-09-30T13:54:05;16.40;99.90
71142;DHT22;58808;59.366;17.970;2023-09-30T13:56:33;16.40;99.90
71142;DHT22;58808;59.366;17.970;2023-09-30T13:58:59;16.50;99.90
71142;DHT22;58808;59.366;17.970;2023-09-30T14:01:25;16.50;99.90
71142;DHT22;58808;59.366;17.970;2023-09-30T14:03:52;16.40;99.90
71142;DHT22;58808;59.366;17.970;2023-09-30T14:06:21;16.30;99.90
71142;DHT22;58808;59.366;17.970;2023-09-30T14:08:46;16.20;99.90
71142;DHT22;58808;59.366;17.970;2023-09-30T14:11:12;16.20;99.90
71142;DHT22;58808;59.366;17.970;2023-09-30T14:13:38;16.20;99.90
71142;DHT22;58808;59.366;17.970;2023-09-30T14:16:08;16.20;99.90
71142;DHT22;58808;59.366;17.970;2023-09-30T14:18:34;16.20;99.90
71142;DHT22;58808;59.366;17.970;2023-09-30T14:21:02;16.20;99.90
71142;DHT22;58808;59.366;17.970;2023-09-30T14:23:28;16.20;99.90
71142;DHT22;58808;59.366;17.970;2023-09-30T14:25:54;16.20;99.90
71142;DHT22;58808;59.366;17.970;2023-09-30T14:28:24;16.10;99.90
71142;DHT22;58808;59.366;17.970;2023-09-30T14:30:50;16.10;99.90
71142;DHT22;58808;59.366;17.970;2023-09-30T14:33:16;16.00;99.90
71142;DHT22;58808;59.366;17.970;2023-09-30T14:35:42;16.00;99.90
71142;DHT22;58808;59.366;17.970;2023-09-30T14:38:11;16.00;99.90
71142;DHT22;58808;59.366;17.970;2023-09-30T14:40:40;15.90;99.90
71142;DHT22;58808;59.366;17.970;2023-09-30T14:43:09;15.90;99.90
71142;DHT22;58808;59.366;17.970;2023-09-30T14:45:39;16.10;99.90
71142;DHT22;58808;59.366;17.970;2023-09-30T14:48:08;16.20;99.90
71142;DHT22;58808;59.366;17.970;2023-09-30T14:50:37;16.30;99.90
71142;DHT22;58808;59.366;17.970;2023-09-30T14:53:03;16.20;99.90
71142;DHT22;58808;59.366;17.970;2023-09-30T14:55:31;16.10;99.90
71142;DHT22;58808;59.366;17.970;2023-09-30T14:57:57;16.00;99.90
71142;DHT22;58808;59.366;17.970;2023-09-30T15:00:23;15.90;99.90
71142;DHT22;58808;59.366;17.970;2023-09-30T15:02:50;15.90;99.90
71142;DHT22;58808;59.366;17.970;2023-09-30T15:05:16;15.80;99.90
71142;DHT22;58808;59.366;17.970;2023-09-30T15:07:43;15.80;99.90
71142;DHT22;58808;59.366;17.970;2023-09-30T15:10:09;15.80;99.90
71142;DHT22;58808;59.366;17.970;2023-09-30T15:12:35;15.90;99.90
71142;DHT22;58808;59.366;17.970;2023-09-30T15:15:01;15.90;99.90
71142;DHT22;58808;59.366;17.970;2023-09-30T15:17:27;15.90;99.90
71142;DHT22;58808;59.366;17.970;2023-09-30T15:19:55;15.90;99.90
71142;DHT22;58808;59.366;17.970;2023-09-30T15:22:20;15.80;99.90
71142;DHT22;58808;59.366;17.970;2023-09-30T15:24:46;15.80;99.90
71142;DHT22;58808;59.366;17.970;2023-09-30T15:27:12;15.70;99.90
71142;DHT22;58808;59.366;17.970;2023-09-30T15:29:37;15.70;99.90
71142;DHT22;58808;59.366;17.970;2023-09-30T15:32:03;15.70;99.90
71142;DHT22;58808;59.366;17.970;2023-09-30T15:34:30;15.70;99.90
71142;DHT22;58808;59.366;17.970;2023-09-30T15:36:56;15.70;99.90
71142;DHT22;58808;59.366;17.970;2023-09-30T15:39:22;15.70;99.90